CheckWX is a tool to help pilots better visualize weather data.  It is not intended as a substitute for an official pre-flight weather briefing.

11:44:33 UTC

KRGA METAR
Central Kentucky Regional Airport
Richmond, Kentucky, USA
Current

10 mins ago

KRGA 241135Z AUTO 21006KT 10SM CLR 22/18 A3015 RMK AO2
Observed
May-24 @ 11:35 UTC
Wind
  • 210° at 6 KTS
Visibility
10 SM
Flight Rules
VFR
Cloud Levels
  • Clear skies
Temperature
22°C / 72°F
Dewpoint
18°C / 64°F
Humidity
78%
Altimeter
30.15" Hg
Pressure
1021.02 hPa
Previous

30 mins ago

KRGA 241115Z AUTO 21006KT 10SM SCT080 22/17 A3015 RMK AO2
Observed
May-24 @ 11:15 UTC
Wind
  • 210° at 6 KTS
Visibility
10 SM
Flight Rules
VFR
Cloud Levels
  • Scattered at 8,000' AGL
Temperature
22°C / 72°F
Dewpoint
17°C / 63°F
Humidity
73%
Altimeter
30.15" Hg
Pressure
1021.02 hPa
Previous

50 mins ago

KRGA 241055Z AUTO 20004KT 10SM BKN080 21/17 A3015 RMK AO2
Observed
May-24 @ 10:55 UTC
Wind
  • 200° at 4 KTS
Visibility
10 SM
Flight Rules
VFR
Cloud Levels
  • Broken at 8,000' AGL
Temperature
21°C / 70°F
Dewpoint
17°C / 63°F
Humidity
78%
Altimeter
30.15" Hg
Pressure
1021.02 hPa